Time;durP1;ratioP1;P1;durP2;ratioP2;P2;SDS_P1;SDS_P2;PMS_P1;PMS_P2;Temp;Humidity;BMP_temperature;BMP_pressure;BME280_temperature;BME280_humidity;BME280_pressure;Samples;Min_cycle;Max_cycle;Signal;HPM_P1;HPM_P2
2021/06/20 00:03:22;;;;;;;14.10;4.50;;;;;;;26.55;44.55;100430.14;5076048;56;1138692;-77
2021/06/20 00:08:28;;;;;;;7.33;4.85;;;;;;;26.51;44.89;100433.00;5075926;56;1140832;-78
2021/06/20 00:13:34;;;;;;;5.42;4.80;;;;;;;26.50;44.75;100425.91;5076110;56;1138592;-77
2021/06/20 00:18:40;;;;;;;8.95;5.08;;;;;;;26.46;44.89;100430.13;5076007;56;1138765;-77
2021/06/20 00:23:47;;;;;;;12.43;5.28;;;;;;;26.34;45.06;100442.24;5075978;56;1138640;-77
2021/06/20 00:28:53;;;;;;;17.42;6.42;;;;;;;26.25;45.21;100443.05;5049803;56;1140846;-77
2021/06/20 00:33:59;;;;;;;12.13;6.45;;;;;;;26.13;45.49;100439.38;5062906;56;1140911;-78
2021/06/20 00:39:05;;;;;;;8.83;5.95;;;;;;;26.04;45.98;100432.59;5062918;56;1140739;-77
2021/06/20 00:44:10;;;;;;;11.20;6.45;;;;;;;25.91;46.16;100430.83;5062955;57;1138766;-78
2021/06/20 00:49:16;;;;;;;15.05;6.58;;;;;;;25.79;46.62;100438.02;5062370;56;1140691;-77
2021/06/20 00:54:22;;;;;;;6.33;5.65;;;;;;;25.69;47.04;100423.28;5062560;56;1140924;-77
2021/06/20 00:59:29;;;;;;;7.15;5.75;;;;;;;25.60;47.40;100417.29;5062926;56;1138582;-77
2021/06/20 01:04:35;;;;;;;9.73;6.25;;;;;;;25.48;48.05;100419.05;5062775;56;1138667;-78
2021/06/20 01:09:40;;;;;;;7.28;6.28;;;;;;;25.36;48.56;100408.61;5062696;56;1138826;-78
2021/06/20 01:14:48;;;;;;;7.65;6.65;;;;;;;25.27;48.71;100399.91;5063103;56;1138742;-77
2021/06/20 01:19:54;;;;;;;10.72;7.47;;;;;;;25.20;49.10;100393.72;5075794;56;1138839;-77
2021/06/20 01:25:10;;;;;;;9.03;6.83;;;;;;;25.12;49.34;100388.55;5047400;56;1140802;-76
2021/06/20 01:30:21;;;;;;;9.80;6.35;;;;;;;25.01;49.90;100391.42;5063206;55;1138737;-77
2021/06/20 01:35:27;;;;;;;9.53;6.95;;;;;;;24.91;50.34;100382.88;5063239;56;1138612;-77
2021/06/20 01:40:33;;;;;;;10.15;6.17;;;;;;;24.84;50.76;100378.88;5062972;56;1138605;-77
2021/06/20 01:45:41;;;;;;;12.03;6.87;;;;;;;24.76;51.07;100382.33;5063071;56;1140741;-77
2021/06/20 01:50:47;;;;;;;10.05;6.33;;;;;;;24.69;51.14;100374.27;5063353;56;1140682;-77
2021/06/20 01:55:53;;;;;;;7.80;7.10;;;;;;;24.64;51.37;100367.83;5063539;56;1140846;-77
2021/06/20 02:01:01;;;;;;;7.87;7.03;;;;;;;24.59;51.59;100367.14;5063637;56;1138785;-77
2021/06/20 02:06:07;;;;;;;7.78;7.00;;;;;;;24.54;51.85;100366.42;5063539;56;1138858;-76
2021/06/20 02:11:13;;;;;;;11.43;6.40;;;;;;;24.49;52.00;100361.33;5063626;56;1138808;-76
2021/06/20 02:16:19;;;;;;;8.60;7.10;;;;;;;24.44;52.31;100364.66;5063185;56;1140821;-77
2021/06/20 02:21:24;;;;;;;7.45;6.65;;;;;;;24.37;52.29;100364.39;5063578;55;1138640;-77
2021/06/20 02:26:30;;;;;;;10.43;6.47;;;;;;;24.31;53.01;100368.77;5063730;56;1138946;-77
2021/06/20 02:31:36;;;;;;;7.67;6.30;;;;;;;24.24;53.44;100365.27;5063373;56;1141010;-77
2021/06/20 02:36:41;;;;;;;9.68;6.33;;;;;;;24.22;53.30;100367.31;5063368;56;1138571;-77
2021/06/20 02:41:50;;;;;;;8.03;6.45;;;;;;;24.18;53.90;100364.72;5063634;56;1138624;-77
2021/06/20 02:46:57;;;;;;;7.75;6.78;;;;;;;24.12;53.85;100358.82;5083146;56;1138774;-78
2021/06/20 02:52:03;;;;;;;11.13;6.87;;;;;;;24.02;54.47;100358.41;5063857;56;1138637;-77
2021/06/20 02:57:09;;;;;;;11.97;6.65;;;;;;;23.98;54.43;100351.27;5062743;57;1140678;-77
2021/06/20 03:02:15;;;;;;;10.63;6.92;;;;;;;23.95;54.64;100351.67;5062603;57;1140719;-77
2021/06/20 03:07:21;;;;;;;11.80;6.53;;;;;;;23.91;54.81;100346.89;5062534;57;1140980;-77
2021/06/20 03:12:28;;;;;;;12.90;6.97;;;;;;;23.86;55.42;100336.71;5062772;55;1140823;-77
2021/06/20 03:17:34;;;;;;;22.42;8.63;;;;;;;23.79;55.55;100337.25;5062918;55;1141165;-77
2021/06/20 03:22:39;;;;;;;16.93;8.00;;;;;;;23.73;55.62;100332.67;5063077;56;1140846;-77
2021/06/20 03:27:45;;;;;;;9.60;7.15;;;;;;;23.72;55.98;100329.66;5062822;56;1140769;-77
2021/06/20 03:32:52;;;;;;;9.10;6.92;;;;;;;23.67;56.85;100321.38;5066303;56;1138705;-77
2021/06/20 03:37:58;;;;;;;8.40;7.20;;;;;;;23.64;56.61;100317.22;5076409;56;1138791;-77
2021/06/20 03:43:04;;;;;;;9.13;6.87;;;;;;;23.60;56.91;100313.27;5076397;56;1138582;-78
2021/06/20 03:48:10;;;;;;;8.00;7.20;;;;;;;23.58;57.41;100320.75;5076141;56;1138919;-77
2021/06/20 03:53:16;;;;;;;12.80;7.97;;;;;;;23.56;57.53;100330.92;5133258;56;1138611;-77
2021/06/20 03:58:22;;;;;;;23.10;8.05;;;;;;;23.54;57.71;100337.55;5129260;56;1140665;-77
2021/06/20 04:03:27;;;;;;;12.63;7.70;;;;;;;23.56;58.37;100343.58;5140504;56;1140741;-77
2021/06/20 04:08:33;;;;;;;11.33;6.33;;;;;;;23.59;57.94;100357.50;5140564;56;1140708;-77
2021/06/20 04:13:39;;;;;;;14.28;7.37;;;;;;;23.71;58.30;100373.91;5079582;56;1140747;-78
2021/06/20 04:18:45;;;;;;;15.53;6.35;;;;;;;23.80;57.78;100379.43;5076213;56;1140870;-77
2021/06/20 04:23:51;;;;;;;7.92;6.97;;;;;;;23.85;58.49;100372.86;5076370;56;1140740;-77
2021/06/20 04:28:58;;;;;;;8.95;7.33;;;;;;;23.94;58.25;100392.41;5076455;56;1138907;-78
2021/06/20 04:34:04;;;;;;;10.93;7.80;;;;;;;23.99;58.18;100393.94;5074115;56;1138783;-78
2021/06/20 04:39:10;;;;;;;12.53;7.03;;;;;;;24.02;57.90;100407.03;5062889;56;1140831;-77
2021/06/20 04:49:33;;;;;;;11.75;7.47;;;;;;;24.14;57.84;100424.27;4974670;58;1138744;-77
2021/06/20 04:54:51;;;;;;;14.05;7.60;;;;;;;24.21;57.93;100421.05;4931965;58;1140721;-78
2021/06/20 05:00:01;;;;;;;8.43;7.37;;;;;;;24.28;57.81;100426.49;4905662;58;1140723;-78
2021/06/20 05:05:09;;;;;;;10.67;6.57;;;;;;;24.34;57.94;100422.41;4944335;55;1138862;-78
2021/06/20 05:10:15;;;;;;;12.88;6.80;;;;;;;24.45;58.06;100424.45;4966378;56;1141109;-77
2021/06/20 05:15:21;;;;;;;9.23;6.78;;;;;;;24.54;57.96;100421.02;4966203;56;1140874;-78
2021/06/20 05:20:27;;;;;;;13.80;7.62;;;;;;;24.62;57.59;100412.66;4966705;56;1138933;-77
2021/06/20 05:25:33;;;;;;;11.88;7.22;;;;;;;24.74;57.80;100409.63;5002609;56;1140722;-78
2021/06/20 05:30:39;;;;;;;10.18;6.30;;;;;;;24.88;57.63;100405.81;5063384;56;1140735;-77
2021/06/20 05:35:46;;;;;;;11.35;5.83;;;;;;;25.02;57.18;100394.95;5065696;56;1141016;-78
2021/06/20 05:40:52;;;;;;;8.88;6.05;;;;;;;25.13;56.73;100401.03;5146351;55;1140728;-77
2021/06/20 05:45:59;;;;;;;12.38;5.66;;;;;;;25.29;56.34;100399.69;5212635;55;1138832;-78
2021/06/20 05:51:05;;;;;;;8.37;6.27;;;;;;;25.45;55.95;100394.58;5152124;55;1140727;-79
2021/06/20 05:56:11;;;;;;;9.35;5.50;;;;;;;25.62;55.19;100398.97;5179094;55;1138695;-79
2021/06/20 06:01:17;;;;;;;10.03;6.53;;;;;;;25.81;55.26;100401.23;5184712;55;1138825;-79
2021/06/20 06:06:23;;;;;;;10.68;5.87;;;;;;;25.99;54.92;100403.96;5174736;55;1140737;-79
2021/06/20 06:11:29;;;;;;;6.62;5.42;;;;;;;26.13;54.09;100404.66;5167846;55;1140662;-79
2021/06/20 06:16:35;;;;;;;7.03;5.22;;;;;;;26.26;53.61;100407.27;5173192;55;1138554;-79
2021/06/20 06:21:41;;;;;;;13.68;5.28;;;;;;;26.41;53.83;100409.13;5178398;55;1138524;-79
2021/06/20 06:26:48;;;;;;;5.92;5.42;;;;;;;26.57;53.06;100401.74;5161207;56;1140558;-80
2021/06/20 06:32:03;;;;;;;7.40;5.50;;;;;;;26.74;53.38;100397.86;5155356;56;1138555;-79
2021/06/20 06:37:10;;;;;;;6.78;5.84;;;;;;;26.92;52.90;100392.41;5123740;56;1138502;-79
2021/06/20 06:42:17;;;;;;;10.35;5.08;;;;;;;27.07;52.26;100390.68;5137744;56;1138800;-80
2021/06/20 06:47:28;;;;;;;11.45;6.42;;;;;;;27.25;51.94;100391.16;5155390;56;1140690;-79
2021/06/20 06:52:35;;;;;;;10.90;6.45;;;;;;;27.31;52.36;100388.37;5158615;55;1140634;-79
2021/06/20 06:57:47;;;;;;;6.95;6.17;;;;;;;27.40;51.78;100377.98;5153532;55;1140620;-80
2021/06/20 07:02:58;;;;;;;18.20;6.97;;;;;;;27.54;52.50;100372.64;5151260;55;1138448;-80
2021/06/20 07:08:12;;;;;;;11.40;5.50;;;;;;;27.61;52.05;100355.74;5121125;55;1140603;-80
2021/06/20 07:13:39;;;;;;;;;;;;;;;;;;;;;
2021/06/20 07:18:45;;;;;;;16.80;6.65;;;;;;;27.87;50.74;100327.80;5099349;55;1138629;-80
2021/06/20 07:24:03;;;;;;;;;;;;;;;;;;;;;
2021/06/20 07:29:06;;;;;;;14.75;4.95;;;;;;;28.11;49.61;100319.11;5148592;55;1138690;-80
2021/06/20 07:34:26;;;;;;;14.50;4.85;;;;;;;28.22;48.27;100328.63;5143185;55;1140586;-80
2021/06/20 07:39:53;;;;;;;9.03;5.25;;;;;;;28.36;49.64;100338.72;5131138;55;1140768;-80
2021/06/20 07:45:04;;;;;;;5.03;4.45;;;;;;;28.66;48.63;100335.26;5167762;55;1138753;-79
2021/06/20 07:50:19;;;;;;;5.85;4.33;;;;;;;28.85;48.76;100334.58;5144223;55;1138726;-79
2021/06/20 07:55:32;;;;;;;7.70;4.13;;;;;;;29.01;47.53;100334.33;5149403;55;1138635;-80
2021/06/20 08:00:42;;;;;;;5.60;4.00;;;;;;;29.23;45.44;100342.06;5140901;55;1138771;-80
2021/06/20 08:05:47;;;;;;;3.90;3.70;;;;;;;29.23;45.44;100342.06;5107328;55;1138682;-80
2021/06/20 08:11:02;;;;;;;5.30;4.15;;;;;;;29.31;44.88;100331.31;5087340;56;1138636;-80
2021/06/20 08:16:05;;;;;;;11.97;4.70;;;;;;;29.45;44.97;100327.22;5146249;55;1138597;-80
2021/06/20 08:21:12;;;;;;;14.23;3.77;;;;;;;29.61;45.25;100329.66;5144646;55;1141042;-80
2021/06/20 08:26:22;;;;;;;8.68;4.10;;;;;;;29.73;44.83;100326.30;5144150;55;1140962;-80
2021/06/20 08:31:33;;;;;;;9.43;3.60;;;;;;;29.92;45.00;100331.77;5135909;55;1138569;-79
2021/06/20 08:36:51;;;;;;;;;;;;;;;;;;;;;
2021/06/20 08:42:12;;;;;;;4.40;3.50;;;;;;;30.11;43.87;100317.31;5125144;55;1138397;-80
2021/06/20 08:47:27;;;;;;;6.50;3.47;;;;;;;30.17;42.60;100310.86;5109385;55;1138579;-80
2021/06/20 08:52:42;;;;;;;7.55;3.25;;;;;;;30.15;41.88;100315.74;5129045;55;1138766;-80
2021/06/20 08:57:48;;;;;;;8.88;3.62;;;;;;;30.22;41.88;100306.02;5150840;55;1138701;-80
2021/06/20 09:03:01;;;;;;;10.45;3.30;;;;;;;30.32;42.37;100291.95;5150684;55;1138811;-80
2021/06/20 09:08:19;;;;;;;36.45;4.70;;;;;;;30.41;42.04;100282.23;5156852;55;1140889;-80
2021/06/20 09:13:33;;;;;;;7.42;3.10;;;;;;;30.57;41.71;100282.44;5171779;55;1140853;-80
2021/06/20 09:18:52;;;;;;;8.53;3.65;;;;;;;30.65;40.87;100292.38;5223340;55;1138801;-80
2021/06/20 09:24:00;;;;;;;7.37;3.00;;;;;;;30.74;40.67;100293.55;5235206;55;1138764;-80
2021/06/20 09:29:10;;;;;;;4.78;2.83;;;;;;;30.87;39.14;100289.58;5200718;55;1138896;-80
2021/06/20 09:34:17;;;;;;;11.60;3.10;;;;;;;30.94;38.50;100286.12;5147436;56;1138640;-80
2021/06/20 09:39:25;;;;;;;7.08;2.80;;;;;;;31.04;37.60;100276.64;5165274;55;1140774;-80
2021/06/20 09:44:52;;;;;;;10.05;3.02;;;;;;;31.19;38.21;100271.05;5142937;56;1138815;-80
2021/06/20 09:49:57;;;;;;;5.08;2.90;;;;;;;31.27;37.31;100269.23;5149461;55;1140962;-80
2021/06/20 09:55:10;;;;;;;5.58;2.58;;;;;;;31.43;36.38;100280.02;5082312;56;1139354;-80
2021/06/20 10:00:16;;;;;;;4.30;2.77;;;;;;;31.54;35.71;100282.27;5067311;56;1138722;-80
2021/06/20 10:05:22;;;;;;;5.10;2.80;;;;;;;31.57;35.65;100264.52;5068929;56;1138681;-79
2021/06/20 10:10:30;;;;;;;3.95;2.30;;;;;;;31.65;35.50;100255.30;5070161;56;1138698;-80
2021/06/20 10:15:37;;;;;;;7.20;2.55;;;;;;;31.75;34.66;100244.98;5067047;56;1138688;-79
2021/06/20 10:20:44;;;;;;;6.12;2.17;;;;;;;31.89;34.62;100261.73;5071147;56;1138871;-79
2021/06/20 10:25:50;;;;;;;4.30;2.10;;;;;;;31.97;35.01;100241.52;5071203;56;1138897;-80
2021/06/20 10:31:07;;;;;;;7.92;2.27;;;;;;;32.10;33.77;100247.88;5071441;56;1138915;-80
2021/06/20 10:36:14;;;;;;;8.05;2.42;;;;;;;32.20;34.34;100248.51;5066777;56;1138744;-81
2021/06/20 10:41:26;;;;;;;8.88;2.25;;;;;;;32.32;32.72;100242.25;5060328;56;1138658;-81
2021/06/20 10:46:33;;;;;;;5.67;2.52;;;;;;;32.30;32.88;100254.55;5073172;56;1139030;-81
2021/06/20 10:51:39;;;;;;;6.15;1.92;;;;;;;32.41;32.33;100252.94;5067390;56;1138766;-82
2021/06/20 10:56:45;;;;;;;5.60;2.67;;;;;;;32.52;33.22;100240.67;5062976;56;1138694;-80
2021/06/20 11:01:51;;;;;;;3.65;1.95;;;;;;;32.59;31.02;100228.89;5033113;56;1138678;-80
2021/06/20 11:06:59;;;;;;;3.37;2.17;;;;;;;32.67;31.64;100239.33;5061891;56;1138803;-81
2021/06/20 11:12:14;;;;;;;2.50;1.90;;;;;;;32.80;31.74;100236.91;5065074;56;1138730;-81
2021/06/20 11:17:20;;;;;;;11.78;8.65;;;;;;;32.91;31.56;100237.73;5068488;56;1138681;-80
2021/06/20 11:22:25;;;;;;;3.05;2.08;;;;;;;33.03;30.79;100231.97;5100323;56;1141002;-82
2021/06/20 11:27:33;;;;;;;4.50;2.20;;;;;;;33.25;30.53;100231.73;5119047;56;1138704;-83
2021/06/20 11:32:39;;;;;;;5.30;2.30;;;;;;;33.25;30.52;100238.04;5065593;56;1138769;-80
2021/06/20 11:37:55;;;;;;;4.83;3.12;;;;;;;33.24;30.37;100237.73;5063131;56;1138892;-79
2021/06/20 11:43:01;;;;;;;6.78;2.12;;;;;;;33.27;30.53;100198.84;5064500;57;1139092;-80
2021/06/20 11:48:08;;;;;;;7.60;2.25;;;;;;;33.38;30.25;100202.38;5029242;56;1138859;-81
2021/06/20 11:53:16;;;;;;;6.00;2.60;;;;;;;33.51;30.34;100188.91;5104179;56;1138686;-81
2021/06/20 11:58:22;;;;;;;4.45;2.58;;;;;;;33.59;30.00;100184.79;5086576;56;1138906;-82
2021/06/20 12:03:28;;;;;;;2.95;2.35;;;;;;;33.59;29.31;100182.59;5110189;56;1139086;-82
2021/06/20 12:08:36;;;;;;;9.93;2.67;;;;;;;33.61;30.04;100185.30;5115436;56;1139321;-82
2021/06/20 12:13:44;;;;;;;2.37;2.17;;;;;;;33.71;30.54;100188.03;5078029;55;1139089;-82
2021/06/20 12:18:50;;;;;;;4.22;2.22;;;;;;;33.83;29.72;100184.44;5089582;55;1139119;-83
2021/06/20 12:23:59;;;;;;;2.62;2.37;;;;;;;33.85;30.34;100191.03;5037178;56;1138818;-81
2021/06/20 12:29:05;;;;;;;5.62;2.10;;;;;;;33.97;29.81;100181.91;5038093;56;1138711;-82
2021/06/20 12:34:12;;;;;;;11.85;2.55;;;;;;;34.18;29.71;100181.27;5064584;56;1138666;-82
2021/06/20 12:39:18;;;;;;;6.53;2.00;;;;;;;34.37;28.63;100172.67;5019533;57;1140799;-80
2021/06/20 12:44:25;;;;;;;2.70;2.17;;;;;;;34.34;28.63;100174.61;5047551;57;1138925;-81
2021/06/20 12:49:30;;;;;;;34.03;4.22;;;;;;;34.32;27.60;100162.27;5062677;57;1138790;-80
2021/06/20 12:54:52;;;;;;;7.25;1.77;;;;;;;34.45;27.03;100160.25;5144167;56;1140933;-81
2021/06/20 12:59:50;;;;;;;5.87;2.20;;;;;;;34.49;26.02;100157.21;5134242;56;1138731;-82
2021/06/20 13:04:56;;;;;;;3.33;1.60;;;;;;;34.51;25.95;100155.00;5147032;56;1138855;-83
2021/06/20 13:10:04;;;;;;;18.10;2.98;;;;;;;34.57;26.08;100165.65;5146927;56;1138729;-82
2021/06/20 13:15:13;;;;;;;2.65;2.05;;;;;;;34.71;26.11;100155.37;5146232;56;1140800;-81
2021/06/20 13:20:21;;;;;;;2.98;1.95;;;;;;;34.71;25.81;100157.56;5147418;56;1138569;-80
2021/06/20 13:25:28;;;;;;;3.80;1.70;;;;;;;34.73;25.71;100159.48;5146912;56;1138675;-82
2021/06/20 13:30:34;;;;;;;4.05;1.90;;;;;;;34.85;25.15;100152.26;5111798;56;1138599;-82
2021/06/20 13:35:40;;;;;;;1.32;1.22;;;;;;;34.89;25.02;100143.71;5132017;55;1138622;-80
2021/06/20 13:40:45;;;;;;;6.92;1.50;;;;;;;34.89;24.48;100149.20;5214860;55;1138566;-81
2021/06/20 13:45:53;;;;;;;4.40;1.90;;;;;;;34.94;25.00;100160.16;5226902;55;1138803;-81
2021/06/20 13:50:58;;;;;;;2.02;1.65;;;;;;;34.95;24.71;100143.94;5205148;55;1138608;-82
2021/06/20 13:56:05;;;;;;;8.45;2.52;;;;;;;34.96;25.37;100140.09;5152918;55;1138556;-83
2021/06/20 14:01:10;;;;;;;5.15;1.80;;;;;;;34.85;24.21;100142.64;5161656;55;1138639;-81
2021/06/20 14:06:16;;;;;;;3.80;1.70;;;;;;;34.72;25.24;100135.03;5198415;55;1138778;-82
2021/06/20 14:11:22;;;;;;;5.45;2.08;;;;;;;34.71;24.61;100114.16;5239444;55;1138575;-82
2021/06/20 14:16:27;;;;;;;6.53;2.22;;;;;;;34.74;25.58;100113.04;5249536;55;1138541;-80
2021/06/20 14:21:33;;;;;;;5.87;2.65;;;;;;;34.75;25.91;100115.23;5215445;55;1138572;-83
2021/06/20 14:26:39;;;;;;;4.62;2.02;;;;;;;34.77;26.02;100098.77;5159489;55;1138953;-81
2021/06/20 14:31:44;;;;;;;2.50;2.02;;;;;;;34.75;25.84;100099.57;5161681;55;1138653;-82
2021/06/20 14:36:50;;;;;;;4.03;2.08;;;;;;;34.70;25.35;100090.55;5164424;55;1138804;-83
2021/06/20 14:41:56;;;;;;;9.90;2.62;;;;;;;34.76;26.31;100084.73;5197106;55;1138736;-81
2021/06/20 14:47:01;;;;;;;3.27;2.27;;;;;;;34.80;26.08;100084.45;5154645;56;1138919;-84
2021/06/20 14:52:08;;;;;;;7.03;2.40;;;;;;;34.83;25.38;100076.98;5144183;55;1138514;-81
2021/06/20 14:57:13;;;;;;;9.03;2.50;;;;;;;34.86;24.95;100076.41;5144042;55;1138557;-82
2021/06/20 15:02:20;;;;;;;11.25;3.37;;;;;;;34.98;24.50;100065.03;5155434;55;1138692;-83
2021/06/20 15:07:26;;;;;;;2.47;2.12;;;;;;;34.89;25.15;100061.27;5194547;54;1140817;-83
2021/06/20 15:12:32;;;;;;;2.83;2.45;;;;;;;34.85;25.34;100055.53;5116171;56;1138484;-82
2021/06/20 15:17:39;;;;;;;4.47;2.27;;;;;;;34.82;25.84;100053.39;5098270;56;1138652;-81
2021/06/20 15:22:44;;;;;;;2.25;1.98;;;;;;;34.78;24.38;100052.88;5084131;56;1138673;-81
2021/06/20 15:27:50;;;;;;;2.47;2.30;;;;;;;34.67;25.39;100065.05;5084206;56;1138640;-81
2021/06/20 15:32:58;;;;;;;3.58;2.10;;;;;;;34.48;24.90;100060.27;5132788;55;1138872;-81
2021/06/20 15:38:10;;;;;;;6.33;2.08;;;;;;;34.38;25.78;100056.77;5184760;55;1138633;-83
2021/06/20 15:43:15;;;;;;;6.80;2.00;;;;;;;34.32;26.31;100046.40;5201019;55;1138596;-82
2021/06/20 15:48:21;;;;;;;2.12;2.02;;;;;;;34.30;26.76;100047.23;5138915;56;1138660;-83
2021/06/20 15:53:27;;;;;;;2.30;2.17;;;;;;;34.30;26.83;100042.30;5139239;56;1138691;-83
2021/06/20 15:58:32;;;;;;;2.15;1.95;;;;;;;34.34;26.78;100044.19;5136479;56;1139100;-83
2021/06/20 16:03:38;;;;;;;1.87;1.77;;;;;;;34.34;26.78;100044.19;5134171;56;1247682;-82
2021/06/20 16:08:44;;;;;;;4.16;2.46;;;;;;;34.29;26.77;100026.92;5159523;55;1138563;-83
2021/06/20 16:13:52;;;;;;;8.37;2.30;;;;;;;34.18;26.84;100026.98;5147559;56;1138594;-81
2021/06/20 16:18:57;;;;;;;4.83;2.20;;;;;;;34.04;26.82;100019.14;5155008;55;1138601;-81
2021/06/20 16:24:03;;;;;;;10.25;2.67;;;;;;;33.90;26.62;100015.41;5156652;55;1138837;-81
2021/06/20 16:29:09;;;;;;;3.47;2.60;;;;;;;33.73;27.21;100001.22;5151921;55;1140722;-82
2021/06/20 16:34:15;;;;;;;12.82;2.45;;;;;;;33.57;27.30;99995.56;5192227;55;1138743;-81
2021/06/20 16:39:21;;;;;;;3.30;2.47;;;;;;;33.47;27.62;100000.53;5155956;55;1138591;-83
2021/06/20 16:44:26;;;;;;;5.70;3.33;;;;;;;33.38;28.02;99997.58;5132478;55;1138965;-81
2021/06/20 16:49:32;;;;;;;8.98;2.42;;;;;;;33.27;28.54;99988.32;5127085;55;1136528;-81
2021/06/20 16:54:38;;;;;;;3.25;1.77;;;;;;;33.16;28.95;99986.95;5145284;56;1136452;-81
2021/06/20 16:59:44;;;;;;;3.12;2.47;;;;;;;33.07;29.36;99988.64;5106260;56;1136596;-82
2021/06/20 17:04:51;;;;;;;5.57;2.30;;;;;;;33.03;29.97;99983.98;5071623;57;1136649;-82
2021/06/20 17:09:57;;;;;;;2.33;2.13;;;;;;;33.03;29.70;99978.51;5075515;56;1136555;-81
2021/06/20 17:15:02;;;;;;;3.47;2.58;;;;;;;33.04;30.16;99976.04;5075926;56;1136672;-81
2021/06/20 17:20:11;;;;;;;7.10;4.50;;;;;;;33.06;30.24;99975.22;5076021;57;1136792;-81
2021/06/20 17:25:18;;;;;;;4.67;2.45;;;;;;;33.00;30.51;99975.77;5112045;55;1136465;-81
2021/06/20 17:30:25;;;;;;;11.10;3.67;;;;;;;32.90;30.81;99962.13;5087976;56;1136571;-81
2021/06/20 17:35:30;;;;;;;8.80;3.98;;;;;;;32.84;30.95;99968.19;5140966;55;1138711;-81
2021/06/20 17:40:37;;;;;;;7.62;2.70;;;;;;;32.75;31.23;99967.66;5085494;55;1136705;-81
2021/06/20 17:45:42;;;;;;;3.25;2.95;;;;;;;32.59;31.42;99959.99;5054946;56;1136544;-82
2021/06/20 17:50:48;;;;;;;10.53;3.72;;;;;;;32.46;31.71;99957.84;5076192;55;1136434;-80
2021/06/20 17:55:54;;;;;;;8.27;2.20;;;;;;;32.32;32.00;99958.95;5136111;56;1138554;-81
2021/06/20 18:01:00;;;;;;;2.58;2.37;;;;;;;32.19;32.16;99956.78;5164827;55;1136624;-80
2021/06/20 18:06:06;;;;;;;11.57;2.92;;;;;;;32.04;32.40;99951.29;5171546;55;1136573;-81
2021/06/20 18:11:12;;;;;;;4.95;2.60;;;;;;;31.92;32.54;99955.67;5179375;55;1138625;-81
2021/06/20 18:16:18;;;;;;;4.55;2.72;;;;;;;31.83;32.67;99954.55;5178093;55;1136463;-81
2021/06/20 18:21:24;;;;;;;6.28;2.80;;;;;;;31.73;32.77;99955.37;5170138;55;1136462;-80
2021/06/20 18:26:30;;;;;;;4.15;3.75;;;;;;;31.66;32.87;99969.02;5164689;55;1136686;-80
2021/06/20 18:31:36;;;;;;;6.28;5.67;;;;;;;31.51;32.98;99977.16;5196637;55;1136606;-80
2021/06/20 18:36:42;;;;;;;3.92;3.22;;;;;;;31.41;33.22;99984.80;5192425;55;1136500;-80
2021/06/20 18:41:49;;;;;;;7.20;2.70;;;;;;;31.30;33.29;99992.70;5183432;55;1136704;-80
2021/06/20 18:46:54;;;;;;;10.13;4.75;;;;;;;31.21;33.43;99990.19;5148227;56;1136449;-80
2021/06/20 18:52:00;;;;;;;10.80;4.00;;;;;;;31.08;33.57;99989.56;5143005;56;1138593;-79
2021/06/20 18:57:07;;;;;;;20.48;5.05;;;;;;;31.02;33.72;100006.19;5136569;56;1138615;-82
2021/06/20 19:02:12;;;;;;;24.92;5.42;;;;;;;30.97;33.95;100004.27;5171118;55;1140664;-79
2021/06/20 19:07:22;;;;;;;6.42;2.47;;;;;;;30.88;34.03;100014.03;5168780;55;1140819;-78
2021/06/20 19:12:55;;;;;;;3.90;2.40;;;;;;;30.80;34.29;100017.83;5235055;55;1138595;-79
2021/06/20 19:18:01;;;;;;;4.93;2.70;;;;;;;30.66;34.41;100016.92;5219664;55;1138586;-86
2021/06/20 19:23:08;;;;;;;5.58;2.25;;;;;;;30.55;34.67;100019.86;5163150;55;1138767;-82
2021/06/20 19:28:14;;;;;;;2.47;2.12;;;;;;;30.42;34.80;100035.54;5164988;55;1138720;-82
2021/06/20 19:33:20;;;;;;;4.58;2.30;;;;;;;30.34;35.01;100047.49;5152644;55;1138867;-79
2021/06/20 19:38:25;;;;;;;7.37;2.40;;;;;;;30.25;35.23;100047.13;5143180;56;1138552;-79
2021/06/20 19:43:31;;;;;;;3.20;2.40;;;;;;;30.14;35.39;100046.77;5147402;55;1138887;-78
2021/06/20 19:48:37;;;;;;;4.28;2.70;;;;;;;30.02;35.54;100047.47;5160668;55;1138562;-83
2021/06/20 19:53:43;;;;;;;8.70;2.85;;;;;;;29.93;35.71;100058.00;5161182;55;1138797;-80
2021/06/20 19:58:50;;;;;;;8.45;2.90;;;;;;;29.87;35.89;100066.38;5169020;55;1138761;-83
2021/06/20 20:03:56;;;;;;;5.50;2.42;;;;;;;29.81;36.05;100073.66;5168713;55;1138913;-80
2021/06/20 20:09:02;;;;;;;3.55;2.72;;;;;;;29.74;36.38;100080.70;5172412;55;1138798;-76
2021/06/20 20:14:08;;;;;;;3.77;2.72;;;;;;;29.71;36.56;100083.92;5170416;55;1138784;-80
2021/06/20 20:19:14;;;;;;;7.83;2.40;;;;;;;29.65;36.61;100075.93;5167965;55;1138482;-81
2021/06/20 20:24:20;;;;;;;2.60;2.40;;;;;;;29.54;36.81;100072.81;5166761;55;1138583;-78
2021/06/20 20:29:26;;;;;;;9.30;3.27;;;;;;;29.40;37.08;100069.64;5147722;55;1138572;-81
2021/06/20 20:34:32;;;;;;;6.58;2.55;;;;;;;29.27;37.33;100069.99;4957125;57;1138583;-78
2021/06/20 20:39:38;;;;;;;7.33;2.77;;;;;;;29.12;37.58;100059.72;4990452;57;1138705;-81
2021/06/20 20:44:44;;;;;;;3.58;2.60;;;;;;;28.97;37.91;100062.23;4984144;57;1138729;-80
2021/06/20 20:49:51;;;;;;;3.70;2.90;;;;;;;28.81;38.25;100063.91;5032352;57;1138817;-81
2021/06/20 20:54:57;;;;;;;6.78;3.00;;;;;;;28.68;38.47;100067.77;5103443;56;1138758;-80
2021/06/20 21:00:06;;;;;;;5.53;2.60;;;;;;;28.60;38.81;100065.98;5017132;56;1138757;-80
2021/06/20 21:05:12;;;;;;;8.13;2.98;;;;;;;28.48;38.92;100055.72;5081139;56;1138611;-80
2021/06/20 21:10:19;;;;;;;3.77;2.90;;;;;;;28.39;39.18;100048.52;5120050;56;1138857;-81
2021/06/20 21:15:25;;;;;;;2.67;2.47;;;;;;;28.27;39.41;100032.25;5056945;56;1138634;-83
2021/06/20 21:20:31;;;;;;;10.58;3.17;;;;;;;28.17;39.64;100025.80;5080960;56;1138852;-80
2021/06/20 21:25:37;;;;;;;7.53;2.67;;;;;;;28.10;39.83;100036.03;5061875;56;1140713;-80
2021/06/20 21:30:43;;;;;;;3.60;2.90;;;;;;;28.03;39.91;100039.42;5058860;56;1138804;-80
2021/06/20 21:35:51;;;;;;;10.75;3.20;;;;;;;27.96;40.16;100040.92;5087468;56;1138644;-81
2021/06/20 21:40:57;;;;;;;8.03;2.58;;;;;;;27.89;40.20;100037.55;5098376;56;1140788;-84
2021/06/20 21:46:03;;;;;;;12.33;3.00;;;;;;;27.81;40.29;100037.39;5063338;56;1138645;-82
2021/06/20 21:51:10;;;;;;;5.47;3.20;;;;;;;27.77;40.38;100043.05;5121181;56;1140719;-88
2021/06/20 21:56:16;;;;;;;5.50;3.40;;;;;;;27.75;40.49;100049.25;5011486;57;1138706;-83
2021/06/20 22:01:22;;;;;;;6.60;2.80;;;;;;;27.73;40.56;100048.66;5000627;57;1138834;-84
2021/06/20 22:06:28;;;;;;;6.70;3.55;;;;;;;27.68;40.65;100044.48;5022111;57;1138655;-88
2021/06/20 22:11:34;;;;;;;4.50;2.80;;;;;;;27.61;40.78;100043.28;4972683;57;1138664;-81
2021/06/20 22:16:40;;;;;;;3.42;2.70;;;;;;;27.53;40.94;100034.64;4986403;57;1138977;-86
2021/06/20 22:21:45;;;;;;;8.65;3.08;;;;;;;27.42;41.13;100020.04;4970872;57;1138995;-79
2021/06/20 22:26:51;;;;;;;5.42;2.85;;;;;;;27.29;41.56;100014.89;4963120;57;1138820;-79
2021/06/20 22:31:59;;;;;;;4.17;3.02;;;;;;;27.14;41.74;100012.69;4945777;57;1138801;-85
2021/06/20 22:37:05;;;;;;;2.97;2.77;;;;;;;27.08;41.79;100001.95;4923011;58;1138846;-81
2021/06/20 22:42:11;;;;;;;6.47;3.10;;;;;;;27.06;41.99;100001.36;4945827;57;1138608;-80
2021/06/20 22:47:17;;;;;;;4.10;3.17;;;;;;;27.04;42.03;99998.88;4934205;57;1138758;-78
2021/06/20 22:52:23;;;;;;;4.30;2.87;;;;;;;27.00;42.10;100002.33;4960776;56;1136554;-83
2021/06/20 22:57:29;;;;;;;6.87;2.67;;;;;;;26.93;42.26;99989.70;5002839;56;1138658;-79
2021/06/20 23:02:35;;;;;;;4.95;2.85;;;;;;;26.88;42.43;99997.72;5038627;56;1136797;-85
2021/06/20 23:07:41;;;;;;;8.33;3.02;;;;;;;26.79;42.60;99983.38;5077257;56;1136646;-83
2021/06/20 23:12:47;;;;;;;9.53;2.80;;;;;;;26.72;42.83;99969.13;5077367;56;1136850;-85
2021/06/20 23:17:53;;;;;;;7.37;3.17;;;;;;;26.64;43.08;99971.66;5077353;56;1136519;-86
2021/06/20 23:23:00;;;;;;;4.67;2.90;;;;;;;26.59;43.12;99969.64;5077237;56;1136752;-85
2021/06/20 23:28:07;;;;;;;4.10;3.10;;;;;;;26.55;43.31;99964.42;5077535;56;1137023;-81